Time;durP1;ratioP1;P1;durP2;ratioP2;P2;SDS_P1;SDS_P2;PMS_P1;PMS_P2;Temp;Humidity;BMP_temperature;BMP_pressure;BME280_temperature;BME280_humidity;BME280_pressure;Samples;Min_cycle;Max_cycle;Signal;HPM_P1;HPM_P2
2023/05/02 00:01:42;;;;;;;8.10;6.17;;;;;;;;;;5092530;28;20565;-72
2023/05/02 00:04:45;;;;;;;8.40;6.67;;;;;;;;;;5104431;28;20198;-72
2023/05/02 00:07:52;;;;;;;8.23;6.53;;;;;;;;;;5104229;28;20178;-72
2023/05/02 00:10:56;;;;;;;8.00;6.00;;;;;;;;;;5116401;28;20178;-72
2023/05/02 00:14:01;;;;;;;6.57;5.83;;;;;;;;;;5104580;28;20193;-72
2023/05/02 00:17:05;;;;;;;6.67;5.97;;;;;;;;;;5103814;28;20532;-72
2023/05/02 00:20:13;;;;;;;7.07;6.37;;;;;;;;;;5103764;28;20182;-72
2023/05/02 00:23:17;;;;;;;7.77;6.23;;;;;;;;;;5103723;28;20202;-73
2023/05/02 00:26:21;;;;;;;7.90;6.40;;;;;;;;;;5103670;28;20174;-72
2023/05/02 00:29:25;;;;;;;7.70;6.33;;;;;;;;;;5116073;28;20170;-72
2023/05/02 00:32:30;;;;;;;6.53;5.40;;;;;;;;;;5103759;28;20209;-72
2023/05/02 00:35:34;;;;;;;7.10;5.97;;;;;;;;;;5104052;28;20186;-72
2023/05/02 00:38:38;;;;;;;6.97;5.77;;;;;;;;;;5103397;28;20179;-72
2023/05/02 00:41:42;;;;;;;6.23;5.50;;;;;;;;;;5103497;28;20218;-73
2023/05/02 00:44:46;;;;;;;5.53;5.00;;;;;;;;;;5116316;28;20206;-73
2023/05/02 00:47:50;;;;;;;5.97;5.37;;;;;;;;;;5103090;28;20525;-73
2023/05/02 00:50:56;;;;;;;6.23;5.60;;;;;;;;;;5103427;28;20178;-73
2023/05/02 00:54:00;;;;;;;8.07;5.70;;;;;;;;;;5091603;28;20178;-73
2023/05/02 00:57:04;;;;;;;6.90;5.97;;;;;;;;;;5103297;28;20552;-73
2023/05/02 01:00:10;;;;;;;6.23;5.57;;;;;;;;;;5091655;28;20629;-73
2023/05/02 01:03:52;;;;;;;7.93;6.07;;;;;;;;;;5090821;28;20187;-72
2023/05/02 01:07:25;;;;;;;9.13;5.10;;;;;;;;;;5091298;28;20544;-72
2023/05/02 01:11:17;;;;;;;7.10;5.20;;;;;;;;;;5102977;28;20637;-72
2023/05/02 01:14:24;;;;;;;8.20;5.70;;;;;;;;;;5102784;28;20175;-73
2023/05/02 01:17:31;;;;;;;6.07;5.40;;;;;;;;;;5102396;28;20170;-72
2023/05/02 01:20:40;;;;;;;7.13;5.27;;;;;;;;;;5102567;28;20640;-73
2023/05/02 01:24:09;;;;;;;8.40;5.30;;;;;;;;;;5102396;28;20541;-73
2023/05/02 01:27:42;;;;;;;6.77;5.73;;;;;;;;;;5115437;28;20640;-73
2023/05/02 01:30:48;;;;;;;6.37;5.10;;;;;;;;;;5115319;28;20171;-72
2023/05/02 01:33:54;;;;;;;6.93;5.67;;;;;;;;;;5114956;28;20181;-73
2023/05/02 01:37:02;;;;;;;6.87;5.23;;;;;;;;;;5114708;28;20198;-73
2023/05/02 01:40:09;;;;;;;6.27;5.23;;;;;;;;;;5102340;28;20178;-73
2023/05/02 01:43:14;;;;;;;11.30;5.50;;;;;;;;;;5102332;28;20526;-73
2023/05/02 01:46:19;;;;;;;5.97;5.37;;;;;;;;;;5101981;28;20214;-72
2023/05/02 01:49:25;;;;;;;6.43;5.20;;;;;;;;;;5102092;28;20174;-73
2023/05/02 01:52:30;;;;;;;6.33;5.40;;;;;;;;;;5102227;28;20214;-73
2023/05/02 01:55:37;;;;;;;7.53;5.77;;;;;;;;;;5102057;28;20182;-72
2023/05/02 01:58:43;;;;;;;6.50;5.80;;;;;;;;;;5102159;28;20182;-73
2023/05/02 02:01:50;;;;;;;6.17;5.57;;;;;;;;;;5114308;28;20692;-73
2023/05/02 02:04:55;;;;;;;8.93;6.17;;;;;;;;;;5101770;28;20210;-73
2023/05/02 02:08:00;;;;;;;7.33;6.10;;;;;;;;;;5102014;28;20510;-73
2023/05/02 02:11:11;;;;;;;7.43;6.37;;;;;;;;;;5101561;28;20209;-72
2023/05/02 02:14:18;;;;;;;9.43;7.47;;;;;;;;;;5113960;28;20608;-73
2023/05/02 02:17:28;;;;;;;7.87;6.47;;;;;;;;;;5114284;28;20182;-73
2023/05/02 02:20:34;;;;;;;7.00;5.80;;;;;;;;;;5114192;28;20190;-73
2023/05/02 02:23:42;;;;;;;6.70;6.00;;;;;;;;;;5101491;28;20206;-73
2023/05/02 02:26:46;;;;;;;7.37;6.27;;;;;;;;;;5101375;28;20509;-73
2023/05/02 02:29:50;;;;;;;7.80;6.23;;;;;;;;;;5101913;28;20178;-73
2023/05/02 02:32:54;;;;;;;7.30;5.90;;;;;;;;;;5113705;28;20223;-73
2023/05/02 02:36:14;;;;;;;8.60;5.50;;;;;;;;;;5090136;28;20229;-73
2023/05/02 02:39:33;;;;;;;7.33;5.80;;;;;;;;;;5102022;28;20179;-73
2023/05/02 02:42:49;;;;;;;6.73;6.00;;;;;;;;;;5078255;28;20213;-73
2023/05/02 02:46:04;;;;;;;7.07;6.33;;;;;;;;;;5101387;28;20210;-73
2023/05/02 02:49:33;;;;;;;7.17;5.30;;;;;;;;;;5101262;28;20178;-73
2023/05/02 02:52:43;;;;;;;5.80;5.10;;;;;;;;;;5101182;28;20217;-73
2023/05/02 02:55:57;;;;;;;7.77;5.60;;;;;;;;;;5101260;28;20186;-73
2023/05/02 02:59:18;;;;;;;6.33;5.70;;;;;;;;;;5101280;28;20178;-73
2023/05/02 03:02:28;;;;;;;8.47;6.17;;;;;;;;;;5101682;28;20213;-73
2023/05/02 03:05:32;;;;;;;7.00;5.87;;;;;;;;;;5089813;28;20210;-73
2023/05/02 03:08:41;;;;;;;8.03;5.63;;;;;;;;;;5113977;28;20517;-72
2023/05/02 03:11:46;;;;;;;8.10;5.70;;;;;;;;;;5101321;28;20210;-72
2023/05/02 03:14:51;;;;;;;6.60;5.70;;;;;;;;;;5100841;28;20174;-72
2023/05/02 03:17:55;;;;;;;5.63;4.70;;;;;;;;;;5101112;28;20186;-72
2023/05/02 03:21:00;;;;;;;6.60;5.83;;;;;;;;;;5100937;28;20190;-72
2023/05/02 03:24:04;;;;;;;7.20;5.63;;;;;;;;;;5089013;28;20205;-72
2023/05/02 03:27:08;;;;;;;7.53;5.80;;;;;;;;;;5104897;28;20193;-72
2023/05/02 03:30:18;;;;;;;6.30;5.30;;;;;;;;;;5104959;28;20178;-72
2023/05/02 03:33:22;;;;;;;9.93;6.10;;;;;;;;;;5093102;28;20182;-72
2023/05/02 03:36:26;;;;;;;8.33;5.63;;;;;;;;;;5092919;28;20178;-72
2023/05/02 03:39:32;;;;;;;6.80;6.03;;;;;;;;;;5104450;28;20202;-72
2023/05/02 03:42:40;;;;;;;6.17;5.50;;;;;;;;;;5092850;28;20217;-72
2023/05/02 03:45:53;;;;;;;9.13;6.20;;;;;;;;;;5093957;28;20688;-73
2023/05/02 03:48:58;;;;;;;7.37;5.90;;;;;;;;;;5092685;28;20175;-73
2023/05/02 03:52:03;;;;;;;9.07;6.30;;;;;;;;;;5104126;28;20209;-73
2023/05/02 03:55:10;;;;;;;6.60;5.87;;;;;;;;;;5091068;28;20194;-72
2023/05/02 03:58:16;;;;;;;8.00;5.90;;;;;;;;;;5101859;28;20194;-74
2023/05/02 04:01:22;;;;;;;6.80;5.83;;;;;;;;;;5103769;28;20588;-73
2023/05/02 04:04:28;;;;;;;6.63;5.87;;;;;;;;;;5103797;28;20625;-74
2023/05/02 04:07:32;;;;;;;8.50;5.77;;;;;;;;;;5103718;28;20174;-73
2023/05/02 04:10:41;;;;;;;6.00;5.27;;;;;;;;;;5104000;28;20182;-73
2023/05/02 04:13:47;;;;;;;7.53;5.60;;;;;;;;;;5103692;28;20178;-73
2023/05/02 04:16:52;;;;;;;7.30;5.13;;;;;;;;;;5103747;28;20178;-73
2023/05/02 04:20:04;;;;;;;7.70;5.10;;;;;;;;;;5092947;28;20186;-73
2023/05/02 04:23:09;;;;;;;8.63;5.63;;;;;;;;;;5103413;28;20194;-74
2023/05/02 04:26:13;;;;;;;6.77;5.53;;;;;;;;;;5091548;28;20222;-73
2023/05/02 04:29:27;;;;;;;8.50;5.47;;;;;;;;;;5103573;28;20178;-73
2023/05/02 04:32:32;;;;;;;7.67;5.47;;;;;;;;;;5091526;28;20218;-74
2023/05/02 04:35:41;;;;;;;6.10;5.50;;;;;;;;;;5103241;28;20174;-73
2023/05/02 04:38:48;;;;;;;6.13;5.53;;;;;;;;;;5091652;28;20628;-73
2023/05/02 04:41:54;;;;;;;5.77;5.13;;;;;;;;;;5103065;28;20691;-73
2023/05/02 04:45:01;;;;;;;6.10;5.40;;;;;;;;;;5091956;28;20525;-73
2023/05/02 04:48:05;;;;;;;6.23;5.50;;;;;;;;;;5102908;28;20185;-73
2023/05/02 04:51:09;;;;;;;5.03;4.50;;;;;;;;;;5079905;28;20684;-73
2023/05/02 04:54:14;;;;;;;5.80;5.20;;;;;;;;;;5115198;28;20174;-74
2023/05/02 04:57:20;;;;;;;6.50;5.40;;;;;;;;;;5082717;28;20179;-73
2023/05/02 05:00:29;;;;;;;5.80;5.23;;;;;;;;;;5071272;28;20182;-73
2023/05/02 05:03:33;;;;;;;6.17;5.23;;;;;;;;;;5082600;28;20183;-73
2023/05/02 05:06:38;;;;;;;6.43;5.73;;;;;;;;;;5070917;28;20210;-74
2023/05/02 05:09:43;;;;;;;5.80;5.20;;;;;;;;;;5082350;28;20621;-74
2023/05/02 05:12:48;;;;;;;24.83;15.13;;;;;;;;;;5093790;28;20214;-73
2023/05/02 05:15:53;;;;;;;15.47;11.63;;;;;;;;;;5093961;28;20182;-74
2023/05/02 05:19:01;;;;;;;9.40;7.97;;;;;;;;;;5093753;28;20186;-73
2023/05/02 05:22:05;;;;;;;7.67;6.87;;;;;;;;;;5081693;28;20217;-74
2023/05/02 05:25:10;;;;;;;6.60;6.00;;;;;;;;;;5070501;28;20195;-74
2023/05/02 05:28:15;;;;;;;8.70;5.70;;;;;;;;;;5070434;28;20198;-74
2023/05/02 05:31:19;;;;;;;8.17;5.57;;;;;;;;;;5093656;28;20681;-74
2023/05/02 05:34:27;;;;;;;5.47;4.97;;;;;;;;;;5082186;28;20179;-74
2023/05/02 05:37:38;;;;;;;6.37;5.70;;;;;;;;;;5093386;28;20179;-74
2023/05/02 05:40:43;;;;;;;6.97;6.00;;;;;;;;;;5070230;28;20175;-74
2023/05/02 05:43:49;;;;;;;8.17;6.70;;;;;;;;;;5093164;28;20518;-75
2023/05/02 05:46:53;;;;;;;6.13;5.00;;;;;;;;;;5093291;28;20203;-74
2023/05/02 05:49:59;;;;;;;5.13;4.63;;;;;;;;;;5080566;28;20179;-74
2023/05/02 05:53:07;;;;;;;14.13;12.03;;;;;;;;;;5093368;28;20179;-74
2023/05/02 05:56:13;;;;;;;12.53;10.40;;;;;;;;;;5093543;28;20656;-74
2023/05/02 05:59:22;;;;;;;8.93;7.23;;;;;;;;;;5081035;28;20213;-74
2023/05/02 06:02:26;;;;;;;14.77;13.27;;;;;;;;;;5093650;28;20218;-74
2023/05/02 06:05:31;;;;;;;6.57;5.27;;;;;;;;;;5069548;28;20660;-74
2023/05/02 06:08:35;;;;;;;7.83;6.17;;;;;;;;;;5081430;28;20182;-74
2023/05/02 06:11:39;;;;;;;8.77;6.47;;;;;;;;;;5081093;28;20218;-73
2023/05/02 06:14:45;;;;;;;8.77;7.83;;;;;;;;;;5092895;28;20179;-74
2023/05/02 06:17:50;;;;;;;9.83;6.13;;;;;;;;;;5092478;22;20226;-71
2023/05/02 06:20:54;;;;;;;10.60;9.60;;;;;;;;;;5093422;28;20194;-70
2023/05/02 06:23:59;;;;;;;6.80;6.10;;;;;;;;;;5080968;28;20179;-70
2023/05/02 06:27:03;;;;;;;7.73;6.67;;;;;;;;;;5092772;28;20210;-70
2023/05/02 06:30:08;;;;;;;7.37;6.67;;;;;;;;;;5093393;28;20178;-70
2023/05/02 06:33:12;;;;;;;7.63;6.13;;;;;;;;;;5093222;28;20175;-68
2023/05/02 06:36:16;;;;;;;6.50;5.80;;;;;;;;;;5093330;28;20179;-70
2023/05/02 06:39:20;;;;;;;6.60;5.97;;;;;;;;;;5069078;28;20174;-70
2023/05/02 06:42:24;;;;;;;7.53;6.70;;;;;;;;;;5080901;28;20214;-68
2023/05/02 06:45:29;;;;;;;7.70;6.60;;;;;;;;;;5080896;28;20190;-70
2023/05/02 06:48:34;;;;;;;7.73;5.83;;;;;;;;;;5080685;28;20198;-70
2023/05/02 06:51:39;;;;;;;8.17;6.27;;;;;;;;;;5080639;28;20215;-70
2023/05/02 06:54:44;;;;;;;8.67;5.60;;;;;;;;;;5073819;28;20199;-70
2023/05/02 06:57:48;;;;;;;7.70;6.50;;;;;;;;;;5072854;28;20172;-70
2023/05/02 07:00:52;;;;;;;7.37;6.47;;;;;;;;;;5075171;28;20183;-70
2023/05/02 07:03:56;;;;;;;7.70;6.90;;;;;;;;;;5064809;28;20179;-70
2023/05/02 07:07:01;;;;;;;8.67;7.77;;;;;;;;;;5076814;28;20219;-70
2023/05/02 07:10:06;;;;;;;7.70;6.07;;;;;;;;;;5076004;28;20183;-69
2023/05/02 07:13:10;;;;;;;8.10;7.10;;;;;;;;;;5064464;28;20172;-70
2023/05/02 07:16:14;;;;;;;6.87;6.17;;;;;;;;;;5078486;28;20198;-69
2023/05/02 07:19:18;;;;;;;5.80;5.20;;;;;;;;;;5086545;28;20195;-69
2023/05/02 07:22:22;;;;;;;5.73;5.13;;;;;;;;;;5063036;28;20227;-70
2023/05/02 07:25:27;;;;;;;6.00;5.23;;;;;;;;;;5091997;28;20186;-70
2023/05/02 07:28:31;;;;;;;6.60;6.00;;;;;;;;;;5081676;28;20183;-68
2023/05/02 07:31:35;;;;;;;6.20;5.53;;;;;;;;;;5032793;28;20697;-69
2023/05/02 07:34:39;;;;;;;6.70;6.00;;;;;;;;;;5056213;28;20634;-69
2023/05/02 07:37:43;;;;;;;8.47;5.67;;;;;;;;;;5044205;28;20180;-69
2023/05/02 07:40:47;;;;;;;9.80;8.60;;;;;;;;;;5055050;28;20172;-69
2023/05/02 07:43:51;;;;;;;8.80;7.80;;;;;;;;;;5056071;28;20177;-70
2023/05/02 07:46:55;;;;;;;6.40;5.77;;;;;;;;;;5055814;28;20227;-69
2023/05/02 07:50:00;;;;;;;7.67;5.73;;;;;;;;;;5056242;28;20203;-69
2023/05/02 07:53:04;;;;;;;7.40;6.00;;;;;;;;;;5055923;28;20219;-70
2023/05/02 07:56:08;;;;;;;8.83;6.17;;;;;;;;;;5056189;28;20176;-70
2023/05/02 07:59:12;;;;;;;7.07;5.53;;;;;;;;;;5067345;28;20199;-70
2023/05/02 08:02:18;;;;;;;6.27;5.53;;;;;;;;;;5075659;28;20211;-70
2023/05/02 08:05:22;;;;;;;6.10;5.50;;;;;;;;;;5075957;28;20519;-70
2023/05/02 08:08:27;;;;;;;6.53;5.77;;;;;;;;;;5063532;28;20180;-70
2023/05/02 08:11:31;;;;;;;7.17;5.67;;;;;;;;;;5062431;28;20219;-70
2023/05/02 08:14:35;;;;;;;7.17;5.67;;;;;;;;;;5075904;28;20180;-70
2023/05/02 08:17:39;;;;;;;5.90;5.17;;;;;;;;;;5075735;28;20542;-71
2023/05/02 08:20:43;;;;;;;6.93;6.13;;;;;;;;;;5075473;28;20199;-70
2023/05/02 08:23:48;;;;;;;6.60;5.00;;;;;;;;;;5075490;28;20203;-71
2023/05/02 08:26:52;;;;;;;8.37;5.47;;;;;;;;;;5075379;28;20223;-70
2023/05/02 08:29:56;;;;;;;6.03;5.50;;;;;;;;;;5075081;28;20219;-69
2023/05/02 08:33:00;;;;;;;5.90;5.30;;;;;;;;;;5062798;28;20214;-70
2023/05/02 08:36:16;;;;;;;7.10;5.17;;;;;;;;;;5051213;28;20184;-70
2023/05/02 08:39:20;;;;;;;5.43;4.93;;;;;;;;;;5051524;28;20184;-71
2023/05/02 08:42:25;;;;;;;7.80;5.57;;;;;;;;;;5051108;28;20219;-70
2023/05/02 08:45:41;;;;;;;7.33;5.40;;;;;;;;;;5051121;28;20183;-71
2023/05/02 08:48:48;;;;;;;5.73;5.13;;;;;;;;;;5062953;28;20180;-70
2023/05/02 08:51:54;;;;;;;6.30;5.23;;;;;;;;;;5062506;28;20219;-70
2023/05/02 08:55:00;;;;;;;6.17;4.97;;;;;;;;;;5075057;28;20180;-71
2023/05/02 08:58:05;;;;;;;6.63;5.70;;;;;;;;;;5074884;28;20187;-69
2023/05/02 09:01:13;;;;;;;9.30;5.73;;;;;;;;;;5054883;28;20219;-69
2023/05/02 09:04:23;;;;;;;6.33;5.73;;;;;;;;;;5054627;28;20520;-69
2023/05/02 09:07:27;;;;;;;9.47;7.20;;;;;;;;;;5042510;28;20208;-69
2023/05/02 09:10:33;;;;;;;6.70;6.00;;;;;;;;;;5042488;28;20172;-69
2023/05/02 09:13:43;;;;;;;9.80;6.70;;;;;;;;;;5031012;28;20176;-69
2023/05/02 09:16:47;;;;;;;7.17;6.27;;;;;;;;;;5054447;28;20196;-70
2023/05/02 09:19:59;;;;;;;8.00;6.27;;;;;;;;;;5042342;28;20176;-69
2023/05/02 09:23:03;;;;;;;10.93;7.87;;;;;;;;;;5054151;28;20567;-70
2023/05/02 09:26:11;;;;;;;10.47;7.17;;;;;;;;;;5030477;28;20180;-69
2023/05/02 09:29:19;;;;;;;8.03;6.60;;;;;;;;;;5060966;28;20203;-68
2023/05/02 09:32:46;;;;;;;7.93;7.13;;;;;;;;;;5061612;28;20214;-69
2023/05/02 09:35:54;;;;;;;8.47;7.50;;;;;;;;;;5074118;28;20180;-69
2023/05/02 09:39:09;;;;;;;9.83;8.53;;;;;;;;;;5061879;28;20171;-69
2023/05/02 09:42:30;;;;;;;10.10;8.80;;;;;;;;;;5073986;28;20211;-69
2023/05/02 09:45:34;;;;;;;10.30;9.20;;;;;;;;;;5073963;28;20183;-69
2023/05/02 09:49:04;;;;;;;11.07;9.10;;;;;;;;;;5073791;28;20203;-69
2023/05/02 09:52:13;;;;;;;10.37;9.27;;;;;;;;;;5073699;28;20207;-69
2023/05/02 09:55:21;;;;;;;10.00;8.97;;;;;;;;;;5073787;28;20195;-69
2023/05/02 09:58:25;;;;;;;13.37;8.70;;;;;;;;;;5061384;28;20195;-69
2023/05/02 10:01:29;;;;;;;9.63;8.63;;;;;;;;;;5073667;28;20211;-69
2023/05/02 10:04:34;;;;;;;11.93;10.73;;;;;;;;;;5061528;28;20171;-69
2023/05/02 10:07:39;;;;;;;10.70;8.77;;;;;;;;;;5061468;28;20219;-69
2023/05/02 10:10:48;;;;;;;12.03;9.73;;;;;;;;;;5073347;28;20183;-69
2023/05/02 10:13:52;;;;;;;14.77;8.67;;;;;;;;;;5073548;28;20183;-69
2023/05/02 10:17:03;;;;;;;9.63;8.63;;;;;;;;;;5071608;28;20203;-70
2023/05/02 10:20:15;;;;;;;8.67;7.77;;;;;;;;;;5049992;28;20172;-69
2023/05/02 10:23:20;;;;;;;9.53;8.53;;;;;;;;;;5073443;28;20180;-69
2023/05/02 10:26:25;;;;;;;8.70;7.83;;;;;;;;;;5061011;28;20681;-70
2023/05/02 10:29:30;;;;;;;9.93;7.90;;;;;;;;;;5061101;28;20483;-69
2023/05/02 10:32:35;;;;;;;9.23;7.60;;;;;;;;;;5073698;28;20223;-69
2023/05/02 10:35:44;;;;;;;8.70;7.63;;;;;;;;;;5060984;28;20171;-69
2023/05/02 10:38:49;;;;;;;8.23;6.97;;;;;;;;;;5060865;28;20176;-69
2023/05/02 10:41:56;;;;;;;8.77;6.97;;;;;;;;;;5060855;28;20218;-69
2023/05/02 10:45:01;;;;;;;11.77;7.03;;;;;;;;;;5073264;28;20179;-69
2023/05/02 10:48:16;;;;;;;7.93;6.83;;;;;;;;;;5061057;28;20207;-69
2023/05/02 10:51:28;;;;;;;10.57;8.33;;;;;;;;;;5072972;28;20215;-70
2023/05/02 10:54:32;;;;;;;8.70;7.57;;;;;;;;;;5073538;28;20176;-69
2023/05/02 10:57:56;;;;;;;8.17;6.87;;;;;;;;;;5060575;28;20194;-70
2023/05/02 11:01:28;;;;;;;9.40;7.07;;;;;;;;;;5060234;28;20188;-70
2023/05/02 11:04:57;;;;;;;8.10;6.90;;;;;;;;;;5060607;28;20180;-70
2023/05/02 11:08:14;;;;;;;10.13;6.13;;;;;;;;;;5072850;28;20679;-70
2023/05/02 11:11:41;;;;;;;9.13;6.00;;;;;;;;;;5060376;28;20217;-70
2023/05/02 11:14:47;;;;;;;11.50;6.93;;;;;;;;;;5073008;28;20176;-69
2023/05/02 11:18:01;;;;;;;11.53;7.00;;;;;;;;;;5072651;28;20203;-70
2023/05/02 11:21:27;;;;;;;8.27;6.50;;;;;;;;;;5060748;28;20219;-69
2023/05/02 11:24:39;;;;;;;9.73;7.47;;;;;;;;;;5060582;28;20180;-69
2023/05/02 11:27:45;;;;;;;8.50;7.30;;;;;;;;;;5072970;28;20207;-69
2023/05/02 11:30:49;;;;;;;8.80;7.07;;;;;;;;;;5060555;28;20180;-69
2023/05/02 11:34:00;;;;;;;8.17;7.27;;;;;;;;;;5072934;28;20630;-69
2023/05/02 11:37:12;;;;;;;7.87;6.77;;;;;;;;;;5073139;28;20184;-69
2023/05/02 11:40:16;;;;;;;8.13;6.90;;;;;;;;;;5060406;28;20180;-69
2023/05/02 11:43:24;;;;;;;7.73;6.93;;;;;;;;;;5072733;28;20531;-69
2023/05/02 11:46:29;;;;;;;7.33;6.60;;;;;;;;;;5074200;28;20179;-69
2023/05/02 11:49:33;;;;;;;9.63;7.70;;;;;;;;;;5076566;28;20172;-69
2023/05/02 11:52:38;;;;;;;8.60;7.70;;;;;;;;;;5064067;28;20218;-69
2023/05/02 11:55:51;;;;;;;9.23;8.43;;;;;;;;;;5076154;28;20191;-69
2023/05/02 11:59:00;;;;;;;9.20;8.30;;;;;;;;;;5075914;28;20196;-69
2023/05/02 12:02:05;;;;;;;9.27;7.73;;;;;;;;;;5076502;28;20219;-69
2023/05/02 12:05:12;;;;;;;11.93;6.87;;;;;;;;;;5075769;28;20191;-69
2023/05/02 12:08:25;;;;;;;7.90;6.67;;;;;;;;;;5075672;28;20219;-69
2023/05/02 12:11:29;;;;;;;7.47;6.67;;;;;;;;;;5075581;28;20219;-69
2023/05/02 12:14:35;;;;;;;7.43;6.73;;;;;;;;;;5075800;28;20179;-69
2023/05/02 12:17:42;;;;;;;7.67;6.67;;;;;;;;;;5075557;28;20199;-70
2023/05/02 12:20:46;;;;;;;6.20;5.33;;;;;;;;;;5075392;28;20172;-69
2023/05/02 12:23:51;;;;;;;8.57;6.77;;;;;;;;;;5076109;28;20614;-69
2023/05/02 12:27:14;;;;;;;7.73;6.93;;;;;;;;;;5051932;28;20516;-70
2023/05/02 12:30:26;;;;;;;8.70;7.80;;;;;;;;;;5076061;28;20176;-69
2023/05/02 12:33:41;;;;;;;9.20;8.27;;;;;;;;;;5063401;28;20191;-69
2023/05/02 12:36:45;;;;;;;9.50;7.67;;;;;;;;;;5052000;28;20540;-70
2023/05/02 12:39:49;;;;;;;9.37;8.37;;;;;;;;;;5075147;28;20175;-69
2023/05/02 12:43:03;;;;;;;8.57;7.67;;;;;;;;;;5062769;28;20223;-70
2023/05/02 12:46:10;;;;;;;9.00;7.70;;;;;;;;;;5075080;28;20187;-70
2023/05/02 12:49:16;;;;;;;8.70;7.80;;;;;;;;;;5075412;28;20204;-69
2023/05/02 12:52:53;;;;;;;9.43;8.50;;;;;;;;;;5075190;28;20219;-69
2023/05/02 12:56:02;;;;;;;8.03;7.20;;;;;;;;;;5075035;28;20638;-70
2023/05/02 12:59:07;;;;;;;9.63;7.43;;;;;;;;;;5062145;28;20175;-70
2023/05/02 13:02:11;;;;;;;8.33;7.53;;;;;;;;;;5074033;28;20211;-70
2023/05/02 13:05:17;;;;;;;7.97;7.17;;;;;;;;;;5062457;28;20294;-70
2023/05/02 13:08:22;;;;;;;7.93;7.07;;;;;;;;;;5062382;28;20207;-70
2023/05/02 13:11:26;;;;;;;8.20;7.00;;;;;;;;;;5074554;28;20215;-70
2023/05/02 13:14:31;;;;;;;9.50;8.10;;;;;;;;;;5051180;28;20172;-70
2023/05/02 13:17:35;;;;;;;8.17;7.17;;;;;;;;;;5074286;28;20199;-70
2023/05/02 13:20:39;;;;;;;6.97;6.23;;;;;;;;;;5074759;28;20638;-69
2023/05/02 13:23:46;;;;;;;7.23;6.60;;;;;;;;;;5062221;28;20175;-70
2023/05/02 13:26:50;;;;;;;9.13;6.83;;;;;;;;;;5074503;28;20175;-69
2023/05/02 13:29:54;;;;;;;8.00;6.53;;;;;;;;;;5074739;28;20203;-69
2023/05/02 13:32:59;;;;;;;8.17;6.63;;;;;;;;;;5074230;28;20219;-69
2023/05/02 13:36:04;;;;;;;8.07;7.23;;;;;;;;;;5074080;28;20176;-70
2023/05/02 13:39:08;;;;;;;11.10;7.27;;;;;;;;;;5076557;22;20233;-72
2023/05/02 13:42:12;;;;;;;10.93;7.50;;;;;;;;;;5114820;28;20206;-73
2023/05/02 13:45:16;;;;;;;7.90;6.30;;;;;;;;;;5114796;28;20172;-73
2023/05/02 13:48:20;;;;;;;7.63;6.27;;;;;;;;;;5114879;28;20203;-73
2023/05/02 13:51:26;;;;;;;6.87;6.20;;;;;;;;;;5114780;28;20216;-74
2023/05/02 13:54:30;;;;;;;6.10;5.50;;;;;;;;;;5114549;28;20175;-74
2023/05/02 13:57:34;;;;;;;6.40;5.80;;;;;;;;;;5101797;28;20176;-73
2023/05/02 14:00:38;;;;;;;6.90;5.87;;;;;;;;;;5101909;28;20175;-73
2023/05/02 14:03:43;;;;;;;6.93;6.03;;;;;;;;;;5114562;28;20175;-73
2023/05/02 14:06:47;;;;;;;7.03;5.30;;;;;;;;;;5114478;28;20179;-73
2023/05/02 14:09:51;;;;;;;6.33;5.67;;;;;;;;;;5101032;28;20209;-73
2023/05/02 14:12:55;;;;;;;5.73;5.07;;;;;;;;;;5114151;28;20213;-73
2023/05/02 14:15:59;;;;;;;5.90;5.30;;;;;;;;;;5114390;28;20181;-73
2023/05/02 14:19:04;;;;;;;6.23;5.43;;;;;;;;;;5114549;28;20174;-73
2023/05/02 14:22:08;;;;;;;6.90;4.37;;;;;;;;;;5101647;28;20209;-73
2023/05/02 14:25:14;;;;;;;7.00;4.80;;;;;;;;;;5101640;28;20178;-73
2023/05/02 14:28:18;;;;;;;5.90;4.73;;;;;;;;;;5114026;28;20206;-73
2023/05/02 14:31:22;;;;;;;6.23;5.00;;;;;;;;;;5101527;28;20209;-73
2023/05/02 14:34:26;;;;;;;4.90;4.40;;;;;;;;;;5114034;28;20182;-73
2023/05/02 14:37:30;;;;;;;7.40;4.13;;;;;;;;;;5114047;28;20515;-74
2023/05/02 14:40:35;;;;;;;5.53;4.30;;;;;;;;;;5101218;28;20204;-73
2023/05/02 14:43:39;;;;;;;6.13;4.37;;;;;;;;;;5113693;28;20170;-73
2023/05/02 14:46:43;;;;;;;5.87;4.30;;;;;;;;;;5113669;28;20186;-74
2023/05/02 14:49:47;;;;;;;4.80;4.40;;;;;;;;;;5101447;28;20210;-73
2023/05/02 14:52:51;;;;;;;5.07;4.00;;;;;;;;;;5113578;28;20206;-73
2023/05/02 14:55:55;;;;;;;3.90;2.77;;;;;;;;;;5113897;28;20179;-73
2023/05/02 14:58:59;;;;;;;4.27;2.17;;;;;;;;;;5101410;28;20171;-73
2023/05/02 15:02:03;;;;;;;3.97;2.37;;;;;;;;;;5113241;28;20222;-73
2023/05/02 15:05:10;;;;;;;3.33;1.70;;;;;;;;;;5113576;28;20197;-72
2023/05/02 15:08:14;;;;;;;9.33;2.27;;;;;;;;;;5113497;28;20178;-74
2023/05/02 15:11:18;;;;;;;9.50;4.90;;;;;;;;;;5100724;28;20688;-74
2023/05/02 15:14:23;;;;;;;4.77;3.00;;;;;;;;;;5113295;28;20170;-73
2023/05/02 15:17:27;;;;;;;3.03;2.43;;;;;;;;;;5113267;28;20178;-74
2023/05/02 15:20:31;;;;;;;7.97;2.60;;;;;;;;;;5100622;28;20190;-73
2023/05/02 15:23:35;;;;;;;7.83;3.00;;;;;;;;;;5105244;28;20193;-73
2023/05/02 15:26:40;;;;;;;4.20;2.80;;;;;;;;;;5117499;28;20174;-73
2023/05/02 15:29:44;;;;;;;3.93;2.43;;;;;;;;;;5117378;28;20206;-73
2023/05/02 15:32:48;;;;;;;3.67;2.80;;;;;;;;;;5104777;28;20548;-73
2023/05/02 15:35:54;;;;;;;4.90;2.63;;;;;;;;;;5117181;28;20174;-73
2023/05/02 15:38:58;;;;;;;3.30;2.63;;;;;;;;;;5104869;28;20193;-72
2023/05/02 15:42:04;;;;;;;3.50;2.30;;;;;;;;;;5104623;28;20213;-73
2023/05/02 15:45:12;;;;;;;3.53;2.90;;;;;;;;;;5117529;28;20182;-74
2023/05/02 15:48:16;;;;;;;5.17;3.37;;;;;;;;;;5104490;28;20174;-74
2023/05/02 15:51:20;;;;;;;7.00;3.57;;;;;;;;;;5104416;28;20209;-74
2023/05/02 15:54:24;;;;;;;4.77;2.80;;;;;;;;;;5116664;28;20182;-73
2023/05/02 15:57:28;;;;;;;2.97;2.63;;;;;;;;;;5116907;28;20198;-73
2023/05/02 16:00:33;;;;;;;3.20;2.90;;;;;;;;;;5092819;28;20518;-73
2023/05/02 16:03:37;;;;;;;4.43;2.67;;;;;;;;;;5117246;28;20522;-73
2023/05/02 16:06:41;;;;;;;5.27;2.70;;;;;;;;;;5104743;28;20605;-74
2023/05/02 16:09:45;;;;;;;3.23;2.80;;;;;;;;;;5116872;28;20205;-73
2023/05/02 16:12:49;;;;;;;2.80;2.60;;;;;;;;;;5117189;28;20221;-75
2023/05/02 16:15:54;;;;;;;4.07;3.07;;;;;;;;;;5104176;28;20182;-75
2023/05/02 16:18:59;;;;;;;3.17;2.50;;;;;;;;;;5104254;28;20174;-75
2023/05/02 16:22:02;;;;;;;3.00;2.70;;;;;;;;;;5116059;28;20213;-75
2023/05/02 16:25:07;;;;;;;4.50;3.17;;;;;;;;;;5091890;28;20668;-76
2023/05/02 16:28:11;;;;;;;3.20;2.90;;;;;;;;;;5116125;28;20193;-75
2023/05/02 16:31:15;;;;;;;4.90;2.93;;;;;;;;;;5113617;27;20209;-74
2023/05/02 16:34:19;;;;;;;3.73;3.10;;;;;;;;;;5107966;27;20194;-74
2023/05/02 16:37:23;;;;;;;3.73;2.93;;;;;;;;;;5116093;28;20209;-74
2023/05/02 16:40:28;;;;;;;3.10;2.80;;;;;;;;;;5105944;28;20667;-74
2023/05/02 16:43:32;;;;;;;4.50;2.53;;;;;;;;;;5115684;28;20178;-73
2023/05/02 16:46:36;;;;;;;4.93;2.50;;;;;;;;;;5103749;28;20528;-75
2023/05/02 16:49:40;;;;;;;4.43;2.67;;;;;;;;;;5115844;28;20202;-74
2023/05/02 16:52:44;;;;;;;5.57;3.00;;;;;;;;;;5103244;28;20209;-74
2023/05/02 16:55:48;;;;;;;5.13;2.63;;;;;;;;;;5115833;28;20624;-74
2023/05/02 16:58:54;;;;;;;4.33;3.17;;;;;;;;;;5091229;28;20198;-73
2023/05/02 17:01:58;;;;;;;4.73;3.13;;;;;;;;;;5115603;28;20217;-74
2023/05/02 17:05:02;;;;;;;3.60;2.80;;;;;;;;;;5102865;28;20178;-74
2023/05/02 17:08:07;;;;;;;4.80;3.20;;;;;;;;;;5103356;28;20294;-74
2023/05/02 17:11:12;;;;;;;7.60;3.20;;;;;;;;;;5115474;28;20719;-74
2023/05/02 17:14:16;;;;;;;6.90;4.00;;;;;;;;;;5102596;28;20174;-73
2023/05/02 17:17:22;;;;;;;4.33;3.40;;;;;;;;;;5115079;28;20537;-74
2023/05/02 17:20:26;;;;;;;7.67;3.20;;;;;;;;;;5102506;28;20190;-73
2023/05/02 17:23:30;;;;;;;3.23;2.87;;;;;;;;;;5091188;28;20631;-74
2023/05/02 17:26:34;;;;;;;3.27;2.97;;;;;;;;;;5102327;28;20644;-74
2023/05/02 17:29:38;;;;;;;4.43;3.40;;;;;;;;;;5114976;28;20297;-74
2023/05/02 17:32:43;;;;;;;4.80;3.23;;;;;;;;;;5102665;28;20214;-74
2023/05/02 17:35:48;;;;;;;3.47;3.17;;;;;;;;;;5102510;28;20525;-73
2023/05/02 17:38:52;;;;;;;4.43;3.07;;;;;;;;;;5114816;28;20198;-74
2023/05/02 17:41:56;;;;;;;4.07;3.47;;;;;;;;;;5102263;28;20276;-73
2023/05/02 17:45:01;;;;;;;5.17;3.20;;;;;;;;;;5114968;28;20182;-73
2023/05/02 17:48:06;;;;;;;3.23;2.83;;;;;;;;;;5114467;28;20208;-73
2023/05/02 17:51:11;;;;;;;3.87;3.03;;;;;;;;;;5114213;28;20226;-74
2023/05/02 17:54:15;;;;;;;3.23;2.70;;;;;;;;;;5114622;28;20201;-74
2023/05/02 17:57:19;;;;;;;2.87;2.57;;;;;;;;;;5114649;28;20198;-74
2023/05/02 18:00:27;;;;;;;3.13;2.60;;;;;;;;;;5090325;28;20528;-74
2023/05/02 18:03:31;;;;;;;2.70;2.50;;;;;;;;;;5114836;28;20178;-74
2023/05/02 18:06:35;;;;;;;4.37;3.50;;;;;;;;;;5114464;28;20170;-73
2023/05/02 18:09:39;;;;;;;3.33;3.03;;;;;;;;;;5114299;28;20544;-73
2023/05/02 18:12:43;;;;;;;3.87;3.03;;;;;;;;;;5101516;28;20213;-74
2023/05/02 18:15:58;;;;;;;2.87;2.67;;;;;;;;;;5113976;28;20186;-73
2023/05/02 18:19:02;;;;;;;3.97;2.87;;;;;;;;;;5114015;28;20178;-74
2023/05/02 18:22:07;;;;;;;4.90;2.60;;;;;;;;;;5090078;28;20218;-74
2023/05/02 18:25:11;;;;;;;4.30;2.57;;;;;;;;;;5101282;28;20189;-74
2023/05/02 18:28:15;;;;;;;3.83;2.90;;;;;;;;;;5114583;28;20170;-74
2023/05/02 18:31:19;;;;;;;3.20;2.90;;;;;;;;;;5113879;28;20226;-74
2023/05/02 18:34:24;;;;;;;3.03;2.73;;;;;;;;;;5113791;28;20178;-74
2023/05/02 18:37:31;;;;;;;4.27;3.07;;;;;;;;;;5113585;28;20189;-73